Time;durP1;ratioP1;P1;durP2;ratioP2;P2;SDS_P1;SDS_P2;PMS_P1;PMS_P2;Temp;Humidity;BMP_temperature;BMP_pressure;BME280_temperature;BME280_humidity;BME280_pressure;Samples;Min_cycle;Max_cycle;Signal;HPM_P1;HPM_P2
2024/04/05 04:05:48;;;;;;;0.30;0.30;;;13.70;99.90;;;;;;6034818;23;20436;-88
2024/04/05 04:08:14;;;;;;;0.30;0.30;;;13.60;99.90;;;;;;4865884;29;20460;-61
2024/04/05 04:10:39;;;;;;;0.30;0.30;;;13.50;99.90;;;;;;4863940;29;20499;-61
2024/04/05 04:13:05;;;;;;;0.30;0.30;;;13.50;99.90;;;;;;4864207;29;20443;-61
2024/04/05 04:15:30;;;;;;;0.30;0.20;;;13.40;99.90;;;;;;4863581;29;20259;-60
2024/04/05 04:17:56;;;;;;;0.30;0.30;;;13.40;99.90;;;;;;4864238;29;20176;-61
2024/04/05 04:20:23;;;;;;;0.30;0.30;;;13.30;99.90;;;;;;4863623;29;20203;-60
2024/04/05 04:22:48;;;;;;;0.30;0.20;;;13.30;99.90;;;;;;4864001;29;20296;-60
2024/04/05 04:25:14;;;;;;;0.30;0.30;;;13.30;99.90;;;;;;4863490;29;20501;-60
2024/04/05 04:27:41;;;;;;;0.30;0.30;;;13.30;99.90;;;;;;4863682;29;20207;-61
2024/04/05 04:30:09;;;;;;;0.30;0.30;;;13.20;99.90;;;;;;4863594;29;20405;-60
2024/04/05 04:32:35;;;;;;;0.30;0.30;;;13.10;99.90;;;;;;4863347;29;20480;-61
2024/04/05 04:35:01;;;;;;;0.30;0.30;;;13.10;99.90;;;;;;4862853;29;20398;-61
2024/04/05 04:37:27;;;;;;;0.30;0.30;;;13.00;99.90;;;;;;4862639;29;20189;-61
2024/04/05 04:39:52;;;;;;;0.30;0.30;;;13.00;99.90;;;;;;4863387;29;21026;-61
2024/04/05 04:42:18;;;;;;;0.50;0.50;;;12.90;99.90;;;;;;4863501;29;20669;-61
2024/04/05 04:44:43;;;;;;;0.30;0.20;;;12.90;99.90;;;;;;4863218;29;20176;-61
2024/04/05 04:47:09;;;;;;;0.40;0.40;;;12.80;99.90;;;;;;4863322;29;20216;-61
2024/04/05 04:49:35;;;;;;;0.30;0.30;;;12.80;99.90;;;;;;4861707;29;20211;-60
2024/04/05 04:52:02;;;;;;;0.30;0.27;;;12.80;99.90;;;;;;4863360;29;20423;-61
2024/04/05 04:54:28;;;;;;;0.30;0.30;;;12.80;99.90;;;;;;4863324;29;20176;-62
2024/04/05 04:56:54;;;;;;;0.30;0.30;;;12.70;99.90;;;;;;4863273;29;20531;-61
2024/04/05 04:59:23;;;;;;;0.30;0.20;;;12.70;99.90;;;;;;4863115;29;20536;-61
2024/04/05 05:01:48;;;;;;;0.37;0.37;;;12.70;99.90;;;;;;4863313;29;20498;-62
2024/04/05 05:04:14;;;;;;;0.30;0.30;;;12.70;99.90;;;;;;4861213;29;20516;-61
2024/04/05 05:06:40;;;;;;;0.30;0.30;;;12.70;99.90;;;;;;4861846;29;20196;-61
2024/04/05 05:09:05;;;;;;;0.30;0.30;;;12.70;99.90;;;;;;4849189;29;20200;-61
2024/04/05 05:11:31;;;;;;;0.30;0.30;;;12.70;99.90;;;;;;4862961;29;20187;-61
2024/04/05 05:13:56;;;;;;;0.30;0.30;;;12.70;99.90;;;;;;4852306;29;20191;-61
2024/04/05 05:16:24;;;;;;;0.30;0.30;;;12.70;99.90;;;;;;4847328;29;20199;-61
2024/04/05 05:18:50;;;;;;;0.40;0.40;;;12.60;99.90;;;;;;4844237;29;20204;-61
2024/04/05 05:21:15;;;;;;;0.30;0.30;;;12.60;99.90;;;;;;4844453;29;20428;-60
2024/04/05 05:23:41;;;;;;;0.30;0.30;;;12.60;99.90;;;;;;4844214;29;20177;-61
2024/04/05 05:26:07;;;;;;;0.30;0.30;;;12.50;99.90;;;;;;4859918;29;20207;-61
2024/04/05 05:28:33;;;;;;;0.30;0.30;;;12.50;99.90;;;;;;4862079;29;20607;-61
2024/04/05 05:30:58;;;;;;;0.30;0.30;;;12.50;99.90;;;;;;4861061;29;20591;-61
2024/04/05 05:33:24;;;;;;;0.30;0.30;;;12.50;99.90;;;;;;4862529;29;20384;-61
2024/04/05 05:35:50;;;;;;;0.60;0.50;;;12.50;99.90;;;;;;4844951;29;20994;-62
2024/04/05 05:38:16;;;;;;;0.30;0.20;;;12.50;99.90;;;;;;4854699;29;20243;-61
2024/04/05 05:40:41;;;;;;;0.30;0.30;;;12.50;99.90;;;;;;4857805;29;20200;-61
2024/04/05 05:43:07;;;;;;;0.30;0.30;;;12.50;99.90;;;;;;4844175;29;20244;-61
2024/04/05 05:45:33;;;;;;;0.30;0.30;;;12.50;99.90;;;;;;4842330;29;20192;-61
2024/04/05 05:47:58;;;;;;;0.30;0.30;;;12.50;99.90;;;;;;4843898;29;20748;-60
2024/04/05 05:50:25;;;;;;;0.30;0.30;;;12.50;99.90;;;;;;4842579;29;20217;-61
2024/04/05 05:52:54;;;;;;;0.30;0.30;;;12.50;99.90;;;;;;4843806;29;20248;-61
2024/04/05 05:55:22;;;;;;;0.30;0.20;;;12.60;99.90;;;;;;4844253;29;20432;-60
2024/04/05 05:57:48;;;;;;;0.30;0.30;;;12.70;99.90;;;;;;4843868;29;20813;-60
2024/04/05 06:00:14;;;;;;;0.30;0.30;;;12.80;99.90;;;;;;4856795;29;20460;-62
2024/04/05 06:02:41;;;;;;;0.30;0.20;;;12.90;99.90;;;;;;4862250;29;20402;-62
2024/04/05 06:05:09;;;;;;;0.30;0.30;;;13.10;99.90;;;;;;4850653;29;20422;-62
2024/04/05 06:07:35;;;;;;;0.30;0.30;;;13.30;99.90;;;;;;4843084;29;20489;-61
2024/04/05 06:10:01;;;;;;;0.30;0.30;;;13.50;99.90;;;;;;4843325;29;20963;-62
2024/04/05 06:12:27;;;;;;;0.30;0.30;;;13.70;99.90;;;;;;4843426;29;20181;-62
2024/04/05 06:14:54;;;;;;;0.30;0.30;;;14.00;99.90;;;;;;4842130;29;20441;-62
2024/04/05 06:17:24;;;;;;;0.30;0.30;;;14.40;99.90;;;;;;4843196;29;20442;-63
2024/04/05 06:19:56;;;;;;;0.30;0.30;;;14.70;99.90;;;;;;4843352;29;20448;-62
2024/04/05 06:22:24;;;;;;;0.50;0.50;;;15.10;99.90;;;;;;4843216;29;20911;-63
2024/04/05 06:24:51;;;;;;;0.30;0.30;;;15.40;99.90;;;;;;4842716;29;20439;-63
2024/04/05 06:27:18;;;;;;;0.30;0.30;;;15.70;99.90;;;;;;4843152;29;20441;-63
2024/04/05 06:29:48;;;;;;;0.30;0.30;;;15.90;99.90;;;;;;4843338;29;20422;-62
2024/04/05 06:32:14;;;;;;;0.30;0.30;;;16.20;99.90;;;;;;4843539;29;20514;-64
2024/04/05 06:34:43;;;;;;;0.57;0.50;;;16.30;99.90;;;;;;4842880;29;20455;-61
2024/04/05 06:37:18;;;;;;;0.30;0.30;;;16.40;99.90;;;;;;5070020;28;20607;-61
2024/04/05 06:39:44;;;;;;;0.30;0.30;;;16.40;99.90;;;;;;5070143;28;20415;-63
2024/04/05 06:42:10;;;;;;;0.43;0.43;;;16.50;99.90;;;;;;5070272;28;20255;-63
2024/04/05 06:44:38;;;;;;;0.43;0.43;;;16.70;99.90;;;;;;5069933;28;20742;-61
2024/04/05 06:47:05;;;;;;;0.30;0.30;;;17.00;99.90;;;;;;5070166;28;20402;-61
2024/04/05 06:49:32;;;;;;;0.30;0.20;;;17.50;99.90;;;;;;5070170;28;20410;-62
2024/04/05 06:52:07;;;;;;;0.30;0.30;;;17.80;99.90;;;;;;5070224;28;20414;-62
2024/04/05 06:54:43;;;;;;;0.30;0.30;;;18.20;99.90;;;;;;5069839;28;20403;-62
2024/04/05 06:57:09;;;;;;;0.30;0.30;;;18.50;99.90;;;;;;5068670;28;20471;-64
2024/04/05 06:59:36;;;;;;;0.30;0.30;;;19.00;99.90;;;;;;5069979;28;20422;-61
2024/04/05 07:02:01;;;;;;;0.30;0.20;;;19.50;99.90;;;;;;5070073;28;20852;-62
2024/04/05 07:04:27;;;;;;;0.30;0.30;;;19.90;99.90;;;;;;5069807;28;20419;-64
2024/04/05 07:06:55;;;;;;;0.30;0.20;;;20.20;99.90;;;;;;5068531;28;20197;-63
2024/04/05 07:09:25;;;;;;;0.30;0.30;;;20.40;99.90;;;;;;5069938;28;20208;-63
2024/04/05 07:11:52;;;;;;;0.30;0.20;;;20.50;99.90;;;;;;5070183;28;20405;-62
2024/04/05 07:14:21;;;;;;;0.30;0.20;;;20.60;99.90;;;;;;5069705;28;20387;-62
2024/04/05 07:16:47;;;;;;;0.30;0.30;;;20.60;99.90;;;;;;5067614;28;20460;-62
2024/04/05 07:19:14;;;;;;;0.30;0.30;;;20.80;99.90;;;;;;5069444;28;20388;-64
2024/04/05 07:21:39;;;;;;;0.30;0.27;;;21.00;99.90;;;;;;5069654;28;20897;-61
2024/04/05 07:24:06;;;;;;;0.30;0.20;;;21.20;99.90;;;;;;5069687;28;20415;-60
2024/04/05 07:26:32;;;;;;;0.40;0.40;;;21.30;99.80;;;;;;5068975;28;20200;-62
2024/04/05 07:28:58;;;;;;;0.30;0.30;;;21.20;98.80;;;;;;5069387;28;20883;-63
2024/04/05 07:31:24;;;;;;;0.30;0.20;;;21.20;98.80;;;;;;5069431;28;20411;-63
2024/04/05 07:33:50;;;;;;;0.30;0.30;;;21.30;99.20;;;;;;5067626;28;20177;-65
2024/04/05 07:36:18;;;;;;;0.30;0.30;;;21.40;98.30;;;;;;5068213;28;20448;-64
2024/04/05 07:38:44;;;;;;;0.30;0.30;;;21.50;97.80;;;;;;5068868;28;20207;-64
2024/04/05 07:41:10;;;;;;;0.30;0.20;;;21.40;98.10;;;;;;5068899;28;20446;-64
2024/04/05 07:43:36;;;;;;;0.30;0.20;;;21.50;97.60;;;;;;5068871;28;20415;-63
2024/04/05 07:46:02;;;;;;;0.40;0.40;;;21.50;97.70;;;;;;5068373;28;20196;-62
2024/04/05 07:48:28;;;;;;;0.30;0.30;;;21.50;96.80;;;;;;5056479;28;20192;-61
2024/04/05 07:51:00;;;;;;;0.30;0.30;;;21.40;96.80;;;;;;5055633;28;20169;-62
2024/04/05 07:53:26;;;;;;;0.30;0.20;;;21.30;97.10;;;;;;5055863;28;20790;-61
2024/04/05 07:55:52;;;;;;;0.37;0.37;;;21.20;97.20;;;;;;5054941;28;20491;-61
2024/04/05 07:58:18;;;;;;;0.30;0.30;;;21.20;97.20;;;;;;5055430;28;20456;-61
2024/04/05 08:00:44;;;;;;;0.30;0.30;;;21.10;97.50;;;;;;5055106;28;20190;-62
2024/04/05 08:03:10;;;;;;;0.30;0.20;;;21.10;97.70;;;;;;5055471;28;20379;-62
2024/04/05 08:05:36;;;;;;;0.30;0.20;;;21.20;97.40;;;;;;5055123;28;21549;-61
2024/04/05 08:08:02;;;;;;;0.30;0.20;;;21.40;97.10;;;;;;5055625;28;20235;-61
2024/04/05 08:10:30;;;;;;;0.30;0.30;;;21.50;97.40;;;;;;5055228;28;20909;-61
2024/04/05 08:12:57;;;;;;;0.30;0.30;;;22.30;97.30;;;;;;5054095;28;20495;-61
2024/04/05 08:15:22;;;;;;;0.30;0.30;;;23.20;95.80;;;;;;5054720;28;20429;-61
2024/04/05 08:17:48;;;;;;;0.40;0.30;;;24.30;94.80;;;;;;5055369;28;20402;-61
2024/04/05 08:20:13;;;;;;;0.30;0.30;;;25.40;93.50;;;;;;5055139;28;20321;-63
2024/04/05 08:22:39;;;;;;;0.40;0.30;;;26.20;90.80;;;;;;5055037;28;20627;-63
2024/04/05 08:25:07;;;;;;;0.30;0.20;;;26.80;90.50;;;;;;5054577;28;20646;-62
2024/04/05 08:27:33;;;;;;;0.30;0.30;;;27.30;88.50;;;;;;5055002;28;20255;-65
2024/04/05 08:29:59;;;;;;;0.50;0.50;;;28.00;87.10;;;;;;5054945;28;20419;-65
2024/04/05 08:32:25;;;;;;;0.30;0.30;;;28.80;81.30;;;;;;5054820;28;20408;-67
2024/04/05 08:34:55;;;;;;;0.30;0.30;;;29.20;80.00;;;;;;5054132;28;20412;-63
2024/04/05 08:37:21;;;;;;;0.30;0.30;;;29.50;78.10;;;;;;5053946;28;20204;-62
2024/04/05 08:39:46;;;;;;;0.30;0.20;;;29.70;76.20;;;;;;5054225;28;20408;-64
2024/04/05 08:42:17;;;;;;;0.30;0.30;;;30.10;75.20;;;;;;5053988;28;20249;-65
2024/04/05 08:44:45;;;;;;;0.30;0.20;;;30.30;73.70;;;;;;5053280;28;20691;-65
2024/04/05 08:47:11;;;;;;;0.30;0.20;;;30.60;73.30;;;;;;5054102;28;20477;-65
2024/04/05 08:49:37;;;;;;;0.40;0.30;;;30.80;72.20;;;;;;5054666;28;20458;-65
2024/04/05 08:52:03;;;;;;;0.30;0.20;;;30.90;70.50;;;;;;5054487;28;20400;-65
2024/04/05 08:54:32;;;;;;;0.30;0.30;;;30.70;70.40;;;;;;5054247;28;20503;-63
2024/04/05 08:57:01;;;;;;;0.50;0.50;;;30.10;70.30;;;;;;5054179;28;20532;-65
2024/04/05 08:59:32;;;;;;;0.30;0.30;;;29.80;72.70;;;;;;5053443;28;20402;-65
2024/04/05 09:02:00;;;;;;;0.30;0.20;;;30.00;72.20;;;;;;5054873;28;20420;-62
2024/04/05 09:04:25;;;;;;;0.50;0.37;;;30.40;70.70;;;;;;5054230;28;20423;-65
2024/04/05 09:06:55;;;;;;;0.30;0.30;;;30.50;68.70;;;;;;5054102;28;20432;-66
2024/04/05 09:09:29;;;;;;;0.63;0.40;;;30.70;68.90;;;;;;5054309;28;20185;-64
2024/04/05 09:12:01;;;;;;;0.30;0.30;;;31.10;68.80;;;;;;5054172;28;20404;-66
2024/04/05 09:14:27;;;;;;;0.40;0.40;;;31.40;68.00;;;;;;5053810;28;20416;-66
2024/04/05 09:16:53;;;;;;;0.40;0.40;;;31.80;67.60;;;;;;5053960;28;20872;-64
2024/04/05 09:19:22;;;;;;;0.30;0.30;;;32.20;65.40;;;;;;5054109;28;20412;-64
2024/04/05 09:21:47;;;;;;;0.40;0.40;;;32.40;65.40;;;;;;5054028;28;20905;-64
2024/04/05 09:24:15;;;;;;;0.40;0.40;;;32.60;64.10;;;;;;5053873;28;20506;-64
2024/04/05 09:26:41;;;;;;;0.30;0.30;;;32.10;66.40;;;;;;5053353;28;20193;-62
2024/04/05 09:29:12;;;;;;;0.40;0.40;;;31.80;66.10;;;;;;5053656;28;20519;-65
2024/04/05 09:31:38;;;;;;;0.30;0.30;;;31.80;66.60;;;;;;5053903;28;20173;-63
2024/04/05 09:34:16;;;;;;;0.40;0.30;;;31.80;65.40;;;;;;5053824;28;20408;-65
2024/04/05 09:36:42;;;;;;;0.50;0.50;;;31.80;65.60;;;;;;5052886;28;20212;-63
2024/04/05 09:39:13;;;;;;;0.40;0.40;;;31.90;67.60;;;;;;5053872;28;20579;-62
2024/04/05 09:41:40;;;;;;;0.30;0.30;;;32.20;66.40;;;;;;5053535;28;20420;-65
2024/04/05 09:44:07;;;;;;;0.30;0.30;;;32.50;65.70;;;;;;5053530;28;20397;-64
2024/04/05 09:46:34;;;;;;;0.30;0.30;;;32.60;63.20;;;;;;5053109;28;20432;-63
2024/04/05 09:49:01;;;;;;;0.30;0.30;;;32.60;62.20;;;;;;5053424;28;20473;-64
2024/04/05 09:51:44;;;;;;;0.30;0.30;;;32.60;64.50;;;;;;5053449;28;20506;-63
2024/04/05 09:54:13;;;;;;;0.30;0.30;;;32.90;64.10;;;;;;5053359;28;20475;-62
2024/04/05 09:56:40;;;;;;;0.30;0.30;;;33.00;62.80;;;;;;5053003;28;20455;-66
2024/04/05 09:59:17;;;;;;;0.30;0.30;;;32.90;61.40;;;;;;5053233;28;20503;-66
2024/04/05 10:01:46;;;;;;;0.30;0.30;;;32.40;62.80;;;;;;5053144;28;20450;-66
2024/04/05 10:04:12;;;;;;;0.30;0.30;;;32.20;63.00;;;;;;5053123;28;20419;-63
2024/04/05 10:06:39;;;;;;;0.57;0.57;;;32.30;62.60;;;;;;5052934;28;20439;-62
2024/04/05 10:09:21;;;;;;;0.30;0.30;;;32.20;62.40;;;;;;5053030;28;20408;-65
2024/04/05 10:11:50;;;;;;;0.30;0.30;;;32.10;62.80;;;;;;5052889;28;20412;-65
2024/04/05 10:14:26;;;;;;;0.30;0.30;;;31.80;63.80;;;;;;5053156;28;20412;-63
2024/04/05 10:16:53;;;;;;;0.90;0.60;;;31.70;63.30;;;;;;5053027;28;20463;-64
2024/04/05 10:19:29;;;;;;;0.30;0.30;;;31.40;63.40;;;;;;5053266;28;20408;-65
2024/04/05 10:22:14;;;;;;;0.40;0.40;;;31.20;63.50;;;;;;5053082;28;20419;-65
2024/04/05 10:24:40;;;;;;;0.30;0.30;;;31.00;61.90;;;;;;5052663;28;20400;-64
2024/04/05 10:27:10;;;;;;;0.30;0.20;;;31.00;64.00;;;;;;5052740;28;20813;-66
2024/04/05 10:29:37;;;;;;;0.30;0.30;;;31.00;62.50;;;;;;5053141;28;20488;-63
2024/04/05 10:32:09;;;;;;;0.30;0.30;;;31.00;64.80;;;;;;5052766;28;20918;-65
2024/04/05 10:34:38;;;;;;;0.30;0.30;;;31.10;63.20;;;;;;5052684;28;20459;-60
2024/04/05 10:37:05;;;;;;;0.30;0.30;;;31.10;60.40;;;;;;5052485;28;20472;-64
2024/04/05 10:39:32;;;;;;;0.30;0.30;;;30.90;59.90;;;;;;5052919;28;20400;-62
2024/04/05 10:41:57;;;;;;;0.30;0.20;;;30.60;59.90;;;;;;5052734;28;20423;-65
2024/04/05 10:44:24;;;;;;;0.30;0.30;;;30.50;61.20;;;;;;5052776;28;20401;-64
2024/04/05 10:46:49;;;;;;;0.30;0.30;;;30.50;60.50;;;;;;5052389;28;20276;-65
2024/04/05 10:49:16;;;;;;;0.30;0.20;;;30.10;61.60;;;;;;5052885;28;20472;-63
2024/04/05 10:51:42;;;;;;;0.30;0.30;;;29.60;63.30;;;;;;5052796;28;20182;-63
2024/04/05 10:54:13;;;;;;;0.30;0.30;;;29.60;64.30;;;;;;5052791;28;20933;-63
2024/04/05 10:56:39;;;;;;;0.40;0.30;;;29.70;64.10;;;;;;5052414;28;20825;-64
2024/04/05 10:59:10;;;;;;;0.30;0.30;;;29.60;62.30;;;;;;5052363;28;20422;-63
2024/04/05 11:01:36;;;;;;;0.30;0.30;;;29.20;63.80;;;;;;5052681;28;20389;-61
2024/04/05 11:04:04;;;;;;;0.30;0.30;;;28.80;64.70;;;;;;5052574;28;20395;-64
2024/04/05 11:06:30;;;;;;;0.30;0.30;;;28.30;67.10;;;;;;5052129;28;20414;-64
2024/04/05 11:08:56;;;;;;;0.30;0.30;;;28.10;68.20;;;;;;5052721;28;20774;-65
2024/04/05 11:11:22;;;;;;;0.33;0.33;;;27.60;66.60;;;;;;5052472;28;20408;-67
2024/04/05 11:13:48;;;;;;;0.33;0.33;;;27.30;67.90;;;;;;5052636;28;20402;-65
2024/04/05 11:16:16;;;;;;;0.40;0.40;;;27.10;69.40;;;;;;5052280;28;20209;-64
2024/04/05 11:18:42;;;;;;;0.30;0.30;;;27.00;69.50;;;;;;5052534;28;20174;-63
2024/04/05 11:21:15;;;;;;;0.30;0.30;;;27.00;70.50;;;;;;5052499;28;20419;-63
2024/04/05 11:24:06;;;;;;;0.30;0.30;;;26.90;66.80;;;;;;5055449;28;20425;-64
2024/04/05 11:26:32;;;;;;;0.30;0.20;;;26.80;66.90;;;;;;5054600;28;20908;-64
2024/04/05 11:29:02;;;;;;;0.30;0.30;;;26.80;66.20;;;;;;5056008;28;20397;-65
2024/04/05 11:31:29;;;;;;;0.30;0.30;;;26.70;66.40;;;;;;5056054;28;20599;-64
2024/04/05 11:33:59;;;;;;;1.53;0.40;;;26.60;67.30;;;;;;5055903;28;20402;-64
2024/04/05 11:36:25;;;;;;;0.30;0.30;;;26.70;68.80;;;;;;5053938;28;20446;-64
2024/04/05 11:38:52;;;;;;;0.30;0.20;;;26.80;67.90;;;;;;5055840;28;20420;-64
2024/04/05 11:41:21;;;;;;;0.30;0.30;;;26.80;68.90;;;;;;5056025;28;20635;-64
2024/04/05 11:43:46;;;;;;;0.30;0.20;;;26.90;67.90;;;;;;5055937;28;20382;-65
2024/04/05 11:46:12;;;;;;;0.30;0.20;;;26.90;66.50;;;;;;5055299;28;20406;-63
2024/04/05 11:48:38;;;;;;;0.30;0.30;;;26.60;66.00;;;;;;5055787;28;20508;-65
2024/04/05 11:51:05;;;;;;;0.30;0.30;;;26.40;67.20;;;;;;5055745;28;20465;-64
2024/04/05 11:53:31;;;;;;;0.30;0.30;;;26.30;65.10;;;;;;5055836;28;20184;-66
2024/04/05 11:55:56;;;;;;;0.30;0.30;;;26.00;67.00;;;;;;5055194;28;20463;-63
2024/04/05 11:58:23;;;;;;;0.30;0.20;;;25.90;67.00;;;;;;5055723;28;20470;-66
2024/04/05 12:00:50;;;;;;;0.33;0.33;;;25.60;66.30;;;;;;5055731;28;20166;-63
2024/04/05 12:03:16;;;;;;;0.30;0.30;;;25.30;67.10;;;;;;5055603;28;20394;-64
2024/04/05 12:05:43;;;;;;;0.30;0.30;;;25.10;68.30;;;;;;5054984;28;20726;-62
2024/04/05 12:08:09;;;;;;;0.30;0.20;;;25.00;68.40;;;;;;5055453;28;20211;-64
2024/04/05 12:10:35;;;;;;;0.30;0.30;;;24.80;69.10;;;;;;5055291;28;20419;-66
2024/04/05 12:13:01;;;;;;;0.30;0.30;;;24.70;70.70;;;;;;5055389;28;20411;-64
2024/04/05 12:15:27;;;;;;;0.70;0.70;;;24.60;70.00;;;;;;5054888;28;20430;-65
2024/04/05 12:17:52;;;;;;;0.30;0.20;;;24.50;71.40;;;;;;5055347;28;20181;-63
2024/04/05 12:20:18;;;;;;;0.63;0.63;;;24.30;72.50;;;;;;5055082;28;20893;-64
2024/04/05 12:22:44;;;;;;;0.50;0.50;;;24.10;71.30;;;;;;5055238;28;20249;-61
2024/04/05 12:25:10;;;;;;;0.30;0.30;;;24.00;72.10;;;;;;5054841;28;20615;-66
2024/04/05 12:27:36;;;;;;;0.30;0.30;;;23.80;73.70;;;;;;5054956;28;20492;-63
2024/04/05 12:30:08;;;;;;;0.30;0.30;;;23.60;74.10;;;;;;5055072;28;20170;-62
2024/04/05 12:32:34;;;;;;;0.30;0.27;;;23.60;74.50;;;;;;5054831;28;20906;-63
2024/04/05 12:35:00;;;;;;;0.30;0.30;;;23.70;75.20;;;;;;5054523;28;20412;-64
2024/04/05 12:37:27;;;;;;;0.50;0.40;;;23.70;75.80;;;;;;5053906;28;20490;-64
2024/04/05 12:39:55;;;;;;;0.30;0.30;;;23.80;75.60;;;;;;5053676;28;20639;-64
2024/04/05 12:42:21;;;;;;;0.30;0.30;;;23.80;75.90;;;;;;5054870;28;20940;-66
2024/04/05 12:44:48;;;;;;;0.30;0.30;;;23.80;75.10;;;;;;5054742;28;20885;-64
2024/04/05 12:47:14;;;;;;;0.30;0.20;;;23.80;75.30;;;;;;5053348;28;20410;-65
2024/04/05 12:49:40;;;;;;;0.30;0.20;;;23.90;74.70;;;;;;5054746;28;20465;-63
2024/04/05 12:52:06;;;;;;;0.30;0.30;;;23.90;74.10;;;;;;5054607;28;20550;-64
2024/04/05 12:54:31;;;;;;;0.30;0.30;;;23.80;73.30;;;;;;5054505;28;20425;-63
2024/04/05 12:57:00;;;;;;;0.30;0.20;;;23.80;74.80;;;;;;5054396;28;20463;-65
2024/04/05 12:59:26;;;;;;;0.30;0.20;;;23.70;75.20;;;;;;5054535;28;20170;-63
2024/04/05 13:01:51;;;;;;;0.30;0.20;;;23.70;74.80;;;;;;5054610;28;20813;-65
2024/04/05 13:04:17;;;;;;;0.30;0.30;;;23.70;75.90;;;;;;5054520;28;20178;-65
2024/04/05 13:06:44;;;;;;;0.30;0.30;;;23.80;76.70;;;;;;5053934;28;20552;-66
2024/04/05 13:09:13;;;;;;;0.30;0.30;;;23.90;76.50;;;;;;5054482;28;20250;-63
2024/04/05 13:11:39;;;;;;;0.30;0.30;;;23.90;74.60;;;;;;5054196;28;20866;-63
2024/04/05 13:14:07;;;;;;;0.30;0.20;;;23.90;73.70;;;;;;5052871;28;20390;-63
2024/04/05 13:16:34;;;;;;;0.57;0.40;;;23.90;72.90;;;;;;5053703;28;20464;-65
2024/04/05 13:19:00;;;;;;;0.30;0.30;;;23.80;71.80;;;;;;5054117;28;20413;-65
2024/04/05 13:21:26;;;;;;;0.73;0.73;;;23.70;71.10;;;;;;5054300;28;20387;-65
2024/04/05 13:23:52;;;;;;;0.30;0.30;;;23.50;71.40;;;;;;5053951;28;20188;-64
2024/04/05 13:26:19;;;;;;;0.30;0.30;;;23.40;72.10;;;;;;5053538;28;20793;-64
2024/04/05 13:28:49;;;;;;;0.30;0.30;;;23.30;71.70;;;;;;5053900;28;20174;-65
2024/04/05 13:31:15;;;;;;;0.30;0.30;;;23.20;72.80;;;;;;5053736;28;20412;-61
2024/04/05 13:33:42;;;;;;;0.30;0.30;;;23.10;73.00;;;;;;5054001;28;20447;-65
2024/04/05 13:36:11;;;;;;;0.30;0.30;;;23.00;73.40;;;;;;5053100;28;20530;-64
2024/04/05 13:38:37;;;;;;;0.30;0.27;;;22.90;73.90;;;;;;5053595;28;20404;-65
2024/04/05 13:41:05;;;;;;;0.40;0.30;;;22.80;72.20;;;;;;5053904;28;20393;-64
2024/04/05 13:43:31;;;;;;;0.30;0.20;;;22.80;74.40;;;;;;5053851;28;20423;-66
2024/04/05 13:46:09;;;;;;;0.40;0.40;;;22.70;73.50;;;;;;5053136;28;20470;-64
2024/04/05 13:48:36;;;;;;;0.30;0.30;;;22.60;74.60;;;;;;5053611;28;20204;-64
2024/04/05 13:51:02;;;;;;;0.30;0.30;;;22.60;75.60;;;;;;5053451;28;20423;-63
2024/04/05 13:53:28;;;;;;;0.30;0.30;;;22.50;76.40;;;;;;5053584;28;20423;-66
2024/04/05 13:55:55;;;;;;;0.47;0.47;;;22.40;74.20;;;;;;5052978;28;20437;-62
2024/04/05 13:58:21;;;;;;;0.30;0.30;;;22.40;76.20;;;;;;5053331;28;20374;-62
2024/04/05 14:00:46;;;;;;;0.30;0.20;;;22.40;75.50;;;;;;5053249;28;20436;-65
2024/04/05 14:03:12;;;;;;;0.30;0.30;;;22.40;75.70;;;;;;5053436;28;20211;-65
2024/04/05 14:05:38;;;;;;;0.30;0.20;;;22.40;75.90;;;;;;5052707;28;20687;-63
2024/04/05 14:08:04;;;;;;;0.40;0.40;;;22.50;76.80;;;;;;5052889;28;20662;-64
2024/04/05 14:10:42;;;;;;;0.30;0.30;;;22.60;77.80;;;;;;5053165;28;20427;-63
2024/04/05 14:13:08;;;;;;;0.40;0.40;;;22.80;77.80;;;;;;5051696;28;20429;-64
2024/04/05 14:15:33;;;;;;;0.30;0.20;;;22.80;77.70;;;;;;5052555;28;20418;-62
2024/04/05 14:17:59;;;;;;;0.30;0.30;;;22.90;78.30;;;;;;5052873;28;20458;-64
2024/04/05 14:20:24;;;;;;;0.30;0.30;;;23.00;77.90;;;;;;5053522;28;20170;-63
2024/04/05 14:22:50;;;;;;;0.30;0.30;;;23.10;77.50;;;;;;5053347;28;20263;-62
2024/04/05 14:25:16;;;;;;;0.30;0.20;;;23.10;77.00;;;;;;5052721;28;20169;-64
2024/04/05 14:27:41;;;;;;;0.30;0.30;;;23.30;77.50;;;;;;5053086;28;20199;-63
2024/04/05 14:30:07;;;;;;;0.40;0.30;;;23.40;77.00;;;;;;5053091;28;20169;-65
2024/04/05 14:32:33;;;;;;;0.30;0.30;;;23.40;76.40;;;;;;5047172;28;20173;-63
2024/04/05 14:34:59;;;;;;;0.30;0.30;;;23.50;76.80;;;;;;5036814;28;20421;-63
2024/04/05 14:37:25;;;;;;;0.30;0.30;;;23.60;77.00;;;;;;5032847;28;20475;-62
2024/04/05 14:39:53;;;;;;;0.30;0.20;;;23.60;76.70;;;;;;5033576;28;20220;-63
2024/04/05 14:42:19;;;;;;;0.30;0.30;;;23.60;76.40;;;;;;5032916;28;20508;-62
2024/04/05 14:44:46;;;;;;;0.30;0.30;;;23.60;76.60;;;;;;5050002;28;20405;-64
2024/04/05 14:47:12;;;;;;;0.30;0.30;;;23.70;78.40;;;;;;5052622;28;20407;-63
2024/04/05 14:49:38;;;;;;;0.30;0.30;;;23.60;78.60;;;;;;5053015;28;20900;-65
2024/04/05 14:52:04;;;;;;;0.30;0.30;;;23.50;80.00;;;;;;5053089;28;20174;-63
2024/04/05 14:54:29;;;;;;;0.53;0.53;;;23.40;79.60;;;;;;5052584;28;20247;-63
2024/04/05 14:56:55;;;;;;;0.30;0.30;;;23.30;79.70;;;;;;5052717;28;20476;-64
2024/04/05 14:59:22;;;;;;;0.30;0.20;;;23.20;80.10;;;;;;5039129;28;20182;-62
2024/04/05 15:01:48;;;;;;;0.67;0.67;;;23.20;81.90;;;;;;5036805;28;20394;-66
2024/04/05 15:04:13;;;;;;;0.30;0.20;;;23.10;81.70;;;;;;5036801;28;20379;-62
2024/04/05 15:06:39;;;;;;;0.30;0.30;;;23.10;82.00;;;;;;5036194;28;20820;-65
2024/04/05 15:09:04;;;;;;;0.30;0.30;;;23.10;82.40;;;;;;5036672;28;20170;-63
2024/04/05 15:11:30;;;;;;;0.30;0.30;;;23.10;81.90;;;;;;5036728;28;20661;-64
2024/04/05 15:13:57;;;;;;;0.30;0.20;;;23.10;81.50;;;;;;5052322;28;20579;-65
2024/04/05 15:16:23;;;;;;;0.33;0.33;;;23.10;81.00;;;;;;5055849;28;20287;-64
2024/04/05 15:18:48;;;;;;;0.30;0.30;;;22.90;80.60;;;;;;5056524;28;20447;-65
2024/04/05 15:21:15;;;;;;;0.30;0.30;;;22.80;80.30;;;;;;5056880;28;20166;-65
2024/04/05 15:23:41;;;;;;;0.30;0.30;;;22.60;80.40;;;;;;5046876;28;20305;-65
2024/04/05 15:26:06;;;;;;;0.30;0.30;;;22.60;80.50;;;;;;5036091;28;20502;-63
2024/04/05 15:28:34;;;;;;;0.30;0.30;;;22.50;80.70;;;;;;5036621;28;20170;-63
2024/04/05 15:31:01;;;;;;;0.37;0.37;;;22.40;81.10;;;;;;5035087;28;20267;-62
2024/04/05 15:33:28;;;;;;;0.30;0.30;;;22.30;80.40;;;;;;5035020;28;20419;-68
2024/04/05 15:35:57;;;;;;;0.30;0.30;;;22.20;81.10;;;;;;5035868;28;20809;-63
2024/04/05 15:38:25;;;;;;;0.30;0.30;;;22.20;81.80;;;;;;5044915;28;20433;-65
2024/04/05 15:41:10;;;;;;;0.30;0.30;;;22.30;82.70;;;;;;5055720;28;20386;-64
2024/04/05 15:43:45;;;;;;;0.30;0.30;;;22.20;84.20;;;;;;5055994;28;20400;-66
2024/04/05 15:46:14;;;;;;;0.30;0.30;;;22.00;84.80;;;;;;5054474;28;20431;-63
2024/04/05 15:48:40;;;;;;;0.30;0.30;;;21.90;85.60;;;;;;5056140;28;20403;-66
2024/04/05 15:51:06;;;;;;;0.30;0.20;;;21.80;87.00;;;;;;5055936;28;20405;-63
2024/04/05 15:53:33;;;;;;;0.30;0.30;;;21.70;88.30;;;;;;5043452;28;20451;-62
2024/04/05 15:56:08;;;;;;;0.30;0.30;;;21.70;88.10;;;;;;5035436;28;20435;-64
2024/04/05 15:58:35;;;;;;;0.30;0.30;;;21.60;88.40;;;;;;5036230;28;20386;-65
2024/04/05 16:01:05;;;;;;;0.30;0.30;;;21.60;88.90;;;;;;5034656;28;20398;-65
2024/04/05 16:03:34;;;;;;;0.30;0.30;;;21.60;89.20;;;;;;5035562;28;20410;-65
2024/04/05 16:06:00;;;;;;;0.30;0.30;;;21.60;89.60;;;;;;5035135;28;20438;-64
2024/04/05 16:08:26;;;;;;;0.30;0.30;;;21.60;89.40;;;;;;5048262;28;20814;-64
2024/04/05 16:10:53;;;;;;;0.30;0.30;;;21.60;89.10;;;;;;5055379;28;20212;-63
2024/04/05 16:13:19;;;;;;;0.30;0.30;;;21.60;89.40;;;;;;5051049;28;20405;-66
2024/04/05 16:15:44;;;;;;;0.30;0.20;;;21.60;89.60;;;;;;5034877;28;20459;-63
2024/04/05 16:18:10;;;;;;;0.30;0.30;;;21.70;90.00;;;;;;5035926;28;20177;-65
2024/04/05 16:20:35;;;;;;;0.40;0.40;;;21.70;90.10;;;;;;5035401;28;20528;-64
2024/04/05 16:23:01;;;;;;;0.30;0.30;;;21.70;90.30;;;;;;5035381;28;20178;-63
2024/04/05 16:25:27;;;;;;;0.30;0.30;;;21.80;90.50;;;;;;5034891;28;20182;-65
2024/04/05 16:27:52;;;;;;;0.30;0.30;;;21.80;90.40;;;;;;5035082;28;20176;-64
2024/04/05 16:30:19;;;;;;;0.30;0.30;;;21.80;90.50;;;;;;5035328;28;20216;-62
2024/04/05 16:32:45;;;;;;;0.30;0.30;;;21.80;90.40;;;;;;5035416;28;20171;-63
2024/04/05 16:35:13;;;;;;;0.30;0.30;;;21.90;90.50;;;;;;5044015;28;20449;-66
2024/04/05 16:37:43;;;;;;;0.30;0.30;;;21.80;90.30;;;;;;5043942;28;20926;-62
2024/04/05 16:40:10;;;;;;;0.30;0.30;;;21.70;90.30;;;;;;5054765;28;20427;-59
2024/04/05 16:42:37;;;;;;;0.30;0.20;;;21.70;90.30;;;;;;5041089;28;20457;-61
2024/04/05 16:45:05;;;;;;;0.50;0.40;;;21.70;90.40;;;;;;5034506;28;20410;-62
2024/04/05 16:47:33;;;;;;;0.30;0.30;;;21.70;90.40;;;;;;5034574;28;20787;-60
2024/04/05 16:50:07;;;;;;;0.30;0.30;;;21.60;90.50;;;;;;5036100;28;20439;-62
2024/04/05 16:52:33;;;;;;;0.67;0.37;;;21.60;90.40;;;;;;5034629;28;20434;-60